Terminal Aerodrome Forecast
Issued by NWS Greer, SC

Home | Current Version | Previous Version | Text Only | Print | Product List | Glossary On
Versions: 1 2 3 4 5 6 7 8 9 10 11 12 13 14 15 16 17 18 19 20 21 22 23
000
FTUS42 KGSP 231017 AAB
TAFCLT
TAF AMD
KCLT 231017Z 2310/2406 12011KT P6SM VCSH BKN009 OVC015
      TEMPO 2312/2315 5SM -SHRA BR OVC004
     FM231500 13012KT 6SM -SHRA BR OVC008
     FM231700 17013G22KT 3SM +SHRA BR OVC010
      TEMPO 2319/2323 16015G30KT 2SM +TSRA BR OVC008CB
     FM240100 20010KT P6SM VCSH BKN040=

USA.gov is the U.S. government's official web portal to all federal, state and local government web resources and services.